Time;durP1;ratioP1;P1;durP2;ratioP2;P2;SDS_P1;SDS_P2;PMS_P1;PMS_P2;Temp;Humidity;BMP_temperature;BMP_pressure;BME280_temperature;BME280_humidity;BME280_pressure;Samples;Min_cycle;Max_cycle;Signal;HPM_P1;HPM_P2
2022/05/31 00:01:53;;;;;;;6.80;4.75;;;;;;;21.50;100.00;100940.09;5137405;27;20122;-71
2022/05/31 00:04:39;;;;;;;6.07;5.30;;;;;;;21.59;100.00;100944.91;5137341;27;20031;-72
2022/05/31 00:07:25;;;;;;;9.95;7.70;;;;;;;21.31;100.00;100936.81;5123368;27;20092;-71
2022/05/31 00:10:13;;;;;;;10.80;7.40;;;;;;;21.31;100.00;100938.59;5137197;27;20451;-71
2022/05/31 00:12:59;;;;;;;10.73;8.50;;;;;;;21.48;100.00;100954.47;5136425;27;20027;-72
2022/05/31 00:15:45;;;;;;;10.30;8.27;;;;;;;21.29;100.00;100948.47;5102377;28;20391;-71
2022/05/31 00:18:31;;;;;;;11.00;8.52;;;;;;;21.46;100.00;100948.38;5115937;28;20443;-72
2022/05/31 00:21:16;;;;;;;11.20;7.45;;;;;;;21.39;100.00;100953.22;5101812;28;20055;-72
2022/05/31 00:24:05;;;;;;;10.65;6.57;;;;;;;20.78;100.00;100940.75;5115734;28;20031;-72
2022/05/31 00:26:53;;;;;;;11.88;6.90;;;;;;;21.05;100.00;100947.25;5115563;28;20403;-72
2022/05/31 00:29:39;;;;;;;9.00;6.00;;;;;;;21.35;100.00;100946.34;5115232;28;20023;-71
2022/05/31 00:32:37;;;;;;;8.18;5.90;;;;;;;21.28;100.00;100944.09;5116018;28;20023;-70
2022/05/31 00:35:28;;;;;;;10.02;5.97;;;;;;;21.49;100.00;100954.38;5116236;28;20031;-71
2022/05/31 00:38:14;;;;;;;7.15;5.10;;;;;;;21.41;100.00;100956.63;5116299;28;20364;-71
2022/05/31 00:41:46;;;;;;;8.60;6.07;;;;;;;21.22;100.00;100949.78;5100608;28;20023;-71
2022/05/31 00:44:27;;;;;;;6.15;5.03;;;;;;;21.13;100.00;100961.00;5115708;28;20030;-73
2022/05/31 00:47:24;;;;;;;8.52;5.30;;;;;;;21.24;100.00;100969.22;5115662;28;20063;-71
2022/05/31 00:50:19;;;;;;;9.68;5.10;;;;;;;20.73;100.00;100970.28;5100636;28;20027;-71
2022/05/31 00:53:10;;;;;;;6.00;5.15;;;;;;;20.54;100.00;100960.75;5115608;28;20057;-71
2022/05/31 00:56:04;;;;;;;7.60;4.78;;;;;;;20.69;100.00;100963.41;5116116;28;20031;-71
2022/05/31 00:59:00;;;;;;;8.48;4.93;;;;;;;20.77;100.00;100979.84;5116693;28;20097;-71
2022/05/31 01:01:51;;;;;;;8.52;5.30;;;;;;;20.69;100.00;100975.88;5115505;28;20031;-72
2022/05/31 01:04:48;;;;;;;5.63;4.88;;;;;;;20.76;100.00;100970.13;5116026;28;20027;-71
2022/05/31 01:07:34;;;;;;;6.18;5.05;;;;;;;20.95;100.00;100970.00;5115399;28;20039;-71
2022/05/31 01:10:21;;;;;;;8.65;5.05;;;;;;;20.57;100.00;100966.75;5115514;28;20024;-70
2022/05/31 01:13:07;;;;;;;6.13;4.72;;;;;;;20.54;100.00;100977.56;5116209;28;20099;-71
2022/05/31 01:16:06;;;;;;;7.43;4.97;;;;;;;20.80;100.00;100976.13;5115495;28;20166;-70
2022/05/31 01:18:52;;;;;;;7.20;4.90;;;;;;;20.71;100.00;100974.84;5115834;28;20031;-71
2022/05/31 01:21:38;;;;;;;7.47;4.70;;;;;;;20.73;100.00;100982.78;5115205;28;20107;-71
2022/05/31 01:24:24;;;;;;;7.88;4.88;;;;;;;20.86;100.00;100978.47;5114747;28;20031;-70
2022/05/31 01:27:58;;;;;;;7.30;5.00;;;;;;;20.62;100.00;100978.00;5114917;28;20094;-71
2022/05/31 01:30:57;;;;;;;7.03;4.97;;;;;;;20.70;100.00;100983.75;5090842;28;20317;-72
2022/05/31 01:34:03;;;;;;;6.70;4.97;;;;;;;20.73;100.00;100985.44;5100102;28;20359;-71
2022/05/31 01:36:52;;;;;;;13.52;5.35;;;;;;;20.74;100.00;100981.81;5115188;28;20027;-72
2022/05/31 01:39:44;;;;;;;9.23;5.70;;;;;;;20.70;100.00;100983.75;5115336;28;20036;-71
2022/05/31 01:42:40;;;;;;;7.30;5.22;;;;;;;20.67;100.00;100983.09;5115393;28;20118;-70
2022/05/31 01:45:30;;;;;;;7.35;6.20;;;;;;;20.72;100.00;100973.91;5114681;28;20085;-70
2022/05/31 01:48:17;;;;;;;8.80;5.53;;;;;;;20.64;100.00;100972.59;5114902;28;20375;-71
2022/05/31 01:51:04;;;;;;;7.68;5.13;;;;;;;20.75;100.00;100970.22;5114507;28;20082;-72
2022/05/31 01:53:52;;;;;;;9.30;5.03;;;;;;;20.72;100.00;100976.56;5115217;28;20465;-70
2022/05/31 01:56:41;;;;;;;6.75;5.20;;;;;;;20.69;100.00;100979.41;5113780;28;20348;-71
2022/05/31 01:59:31;;;;;;;6.57;5.00;;;;;;;20.50;100.00;100977.81;5115153;28;20024;-70
2022/05/31 02:02:20;;;;;;;5.72;4.90;;;;;;;20.69;100.00;100974.06;5115171;28;20031;-71
2022/05/31 02:05:06;;;;;;;6.13;5.38;;;;;;;20.50;100.00;100985.81;5115154;28;20042;-71
2022/05/31 02:07:54;;;;;;;6.90;5.15;;;;;;;20.52;100.00;100984.78;5114588;28;20344;-71
2022/05/31 02:10:40;;;;;;;6.47;5.10;;;;;;;20.71;100.00;100996.16;5114248;28;20016;-71
2022/05/31 02:13:26;;;;;;;9.57;5.70;;;;;;;20.40;100.00;100996.09;5117555;28;20051;-71
2022/05/31 02:16:13;;;;;;;6.47;5.28;;;;;;;20.49;100.00;100995.59;5135171;28;20031;-70
2022/05/31 02:22:10;;;;;;;8.32;6.22;;;;;;;20.45;100.00;101010.00;5135511;28;20027;-71
2022/05/31 02:24:56;;;;;;;6.80;5.40;;;;;;;19.98;100.00;101008.09;5120198;28;20431;-71
2022/05/31 02:27:42;;;;;;;6.82;5.15;;;;;;;20.23;100.00;101012.09;5134838;28;20023;-71
2022/05/31 02:30:28;;;;;;;7.95;5.25;;;;;;;20.25;100.00;101012.84;5135111;28;20439;-70
2022/05/31 02:33:14;;;;;;;9.18;5.35;;;;;;;20.07;100.00;101013.78;5133896;28;20039;-71
2022/05/31 02:36:00;;;;;;;6.90;5.32;;;;;;;20.37;100.00;101009.56;5135012;28;20023;-71
2022/05/31 02:38:46;;;;;;;8.13;5.45;;;;;;;20.33;100.00;101012.47;5133910;28;20023;-71
2022/05/31 02:41:32;;;;;;;9.07;5.68;;;;;;;20.36;100.00;101010.50;5134214;28;20393;-72
2022/05/31 02:44:19;;;;;;;7.15;5.20;;;;;;;20.30;100.00;101020.59;5134538;28;20027;-71
2022/05/31 02:47:10;;;;;;;9.15;5.45;;;;;;;20.56;100.00;101023.59;5119876;28;20137;-70
2022/05/31 02:49:56;;;;;;;8.15;5.03;;;;;;;20.26;100.00;101032.34;5119362;28;20118;-71
2022/05/31 02:52:41;;;;;;;5.95;5.15;;;;;;;20.33;100.00;101031.09;5135124;28;20352;-71
2022/05/31 02:55:27;;;;;;;8.07;6.00;;;;;;;20.47;100.00;101034.75;5134585;28;20494;-71
2022/05/31 02:58:13;;;;;;;7.47;5.57;;;;;;;20.24;100.00;101035.09;5135071;28;20031;-70
2022/05/31 03:00:59;;;;;;;7.65;5.38;;;;;;;20.15;100.00;101040.03;5133931;28;20028;-71
2022/05/31 03:03:44;;;;;;;7.97;5.40;;;;;;;20.40;100.00;101038.66;5119458;28;20111;-72
2022/05/31 03:06:30;;;;;;;9.63;5.55;;;;;;;20.05;100.00;101036.09;5134566;28;20122;-70
2022/05/31 03:09:17;;;;;;;10.57;6.22;;;;;;;20.19;100.00;101034.47;5134288;28;20058;-70
2022/05/31 03:12:11;;;;;;;7.22;5.82;;;;;;;20.24;100.00;101024.44;5135729;27;20038;-71
2022/05/31 03:15:07;;;;;;;12.02;5.82;;;;;;;20.50;100.00;101036.38;5137789;27;20522;-72
2022/05/31 03:18:01;;;;;;;7.28;5.53;;;;;;;20.42;100.00;101047.44;5139687;27;20038;-72
2022/05/31 03:20:51;;;;;;;5.78;5.10;;;;;;;20.57;100.00;101059.09;5137908;27;20050;-71
2022/05/31 03:23:42;;;;;;;9.68;5.80;;;;;;;20.38;100.00;101061.88;5138644;27;20327;-70
2022/05/31 03:26:31;;;;;;;11.02;5.97;;;;;;;20.30;100.00;101065.84;5138245;27;20023;-70
2022/05/31 03:29:17;;;;;;;8.07;5.50;;;;;;;20.51;100.00;101072.72;5109026;27;20114;-71
2022/05/31 03:32:04;;;;;;;7.07;5.53;;;;;;;20.05;100.00;101076.84;5138181;27;20019;-71
2022/05/31 03:34:51;;;;;;;7.47;5.10;;;;;;;20.10;100.00;101088.16;5138060;27;20447;-70
2022/05/31 03:37:38;;;;;;;12.07;5.78;;;;;;;20.22;100.00;101086.66;5123686;27;20400;-70
2022/05/31 03:43:32;;;;;;;6.45;5.75;;;;;;;19.50;100.00;101082.31;5137794;27;20019;-71
2022/05/31 03:46:18;;;;;;;7.03;5.85;;;;;;;19.92;100.00;101089.03;5137635;27;20447;-71
2022/05/31 03:49:03;;;;;;;11.98;6.07;;;;;;;19.98;100.00;101086.09;5138042;27;20111;-70
2022/05/31 03:51:49;;;;;;;7.40;6.25;;;;;;;20.23;100.00;101097.25;5137802;27;20057;-71
2022/05/31 03:54:36;;;;;;;7.55;5.40;;;;;;;20.20;100.00;101107.16;5138173;27;20023;-70
2022/05/31 03:57:22;;;;;;;7.38;5.47;;;;;;;20.30;100.00;101098.66;5137402;27;20079;-69
2022/05/31 04:00:11;;;;;;;10.00;5.82;;;;;;;20.36;100.00;101097.44;5122859;27;20038;-70
2022/05/31 04:02:57;;;;;;;7.88;5.68;;;;;;;19.78;100.00;101106.63;5137266;27;20035;-72
2022/05/31 04:05:43;;;;;;;9.15;6.00;;;;;;;19.97;100.00;101087.00;5137890;27;20344;-72
2022/05/31 04:08:29;;;;;;;7.82;6.07;;;;;;;19.64;100.00;101103.78;5121610;27;20443;-71
2022/05/31 04:11:15;;;;;;;8.00;5.95;;;;;;;20.02;100.00;101105.41;5137537;27;20027;-71
2022/05/31 04:14:01;;;;;;;10.90;6.38;;;;;;;19.84;100.00;101091.22;5136543;27;20051;-72
2022/05/31 04:16:47;;;;;;;9.55;5.78;;;;;;;20.14;100.00;101097.72;5136862;27;20061;-72
2022/05/31 04:19:34;;;;;;;9.80;6.60;;;;;;;20.49;100.00;101102.06;5136658;27;20023;-75
2022/05/31 04:22:19;;;;;;;11.32;6.45;;;;;;;19.86;100.00;101097.34;5137327;27;20064;-75
2022/05/31 04:25:06;;;;;;;9.45;6.35;;;;;;;19.84;100.00;101101.00;5122313;27;20035;-74
2022/05/31 04:27:51;;;;;;;14.32;7.20;;;;;;;20.08;100.00;101105.97;5136914;27;20452;-74
2022/05/31 04:30:37;;;;;;;8.65;6.63;;;;;;;20.19;100.00;101114.31;5137225;27;20027;-74
2022/05/31 04:33:23;;;;;;;15.50;6.82;;;;;;;20.49;100.00;101120.69;5136618;27;20019;-76
2022/05/31 04:36:12;;;;;;;12.07;7.80;;;;;;;20.41;100.00;101114.06;5137160;27;20034;-74
2022/05/31 04:38:59;;;;;;;11.27;7.45;;;;;;;20.42;100.00;101116.66;5136468;27;20035;-75
2022/05/31 04:41:46;;;;;;;10.07;7.45;;;;;;;20.22;100.00;101119.47;5136895;27;20024;-76
2022/05/31 04:44:32;;;;;;;9.48;6.88;;;;;;;20.21;100.00;101119.56;5121284;27;20023;-76
2022/05/31 04:47:17;;;;;;;13.45;7.15;;;;;;;20.72;100.00;101125.69;5136773;27;20027;-76
2022/05/31 04:50:04;;;;;;;9.68;7.25;;;;;;;20.68;100.00;101116.16;5136596;27;20049;-77
2022/05/31 04:52:49;;;;;;;15.55;6.82;;;;;;;20.19;100.00;101105.44;5137026;27;20031;-70
2022/05/31 04:55:36;;;;;;;12.15;7.15;;;;;;;20.81;100.00;101117.22;5136679;27;20035;-76
2022/05/31 04:58:21;;;;;;;13.80;6.45;;;;;;;21.25;100.00;101105.06;5136330;27;20058;-76
2022/05/31 05:01:07;;;;;;;10.88;6.57;;;;;;;21.26;100.00;101100.59;5136775;27;20079;-76
2022/05/31 05:03:54;;;;;;;9.05;6.50;;;;;;;20.66;100.00;101106.53;5136391;27;20031;-76
2022/05/31 05:06:40;;;;;;;12.48;6.32;;;;;;;20.47;100.00;101101.31;5135082;27;20079;-75
2022/05/31 05:09:25;;;;;;;9.90;6.70;;;;;;;20.84;100.00;101103.75;5136054;27;20019;-75
2022/05/31 05:12:11;;;;;;;9.10;7.20;;;;;;;20.66;100.00;101107.38;5136069;27;20450;-76
2022/05/31 05:14:57;;;;;;;11.55;8.07;;;;;;;21.02;100.00;101096.59;5136271;27;20436;-75
2022/05/31 05:17:43;;;;;;;13.13;6.95;;;;;;;21.72;100.00;101108.63;5121438;27;20030;-75
2022/05/31 05:20:33;;;;;;;9.80;6.82;;;;;;;21.67;100.00;101115.13;5135837;27;20520;-75
2022/05/31 05:23:19;;;;;;;14.30;6.65;;;;;;;21.94;100.00;101106.44;5135745;27;20030;-75
2022/05/31 05:26:06;;;;;;;9.30;7.35;;;;;;;22.05;100.00;101114.69;5135922;27;20027;-75
2022/05/31 05:31:57;;;;;;;10.68;7.30;;;;;;;22.23;100.00;101115.41;5135711;27;20031;-76
2022/05/31 05:34:43;;;;;;;14.57;7.30;;;;;;;22.22;100.00;101125.22;5135456;27;20432;-76
2022/05/31 05:37:29;;;;;;;10.38;7.15;;;;;;;22.33;100.00;101132.59;5120934;27;20383;-77
2022/05/31 05:40:14;;;;;;;14.43;7.22;;;;;;;22.14;100.00;101134.66;5120841;27;20088;-77
2022/05/31 05:43:00;;;;;;;12.80;7.25;;;;;;;22.19;100.00;101138.75;5135645;27;20019;-76
2022/05/31 05:45:46;;;;;;;9.27;6.22;;;;;;;22.27;100.00;101138.31;5135444;27;20059;-76
2022/05/31 05:48:32;;;;;;;7.40;6.22;;;;;;;22.71;100.00;101142.72;5135520;27;20041;-75
2022/05/31 05:51:21;;;;;;;13.10;6.45;;;;;;;22.59;100.00;101132.78;5134717;27;20011;-76
2022/05/31 05:54:07;;;;;;;12.15;6.10;;;;;;;22.94;100.00;101138.66;5135572;27;20022;-73
2022/05/31 05:56:52;;;;;;;8.07;6.47;;;;;;;22.94;100.00;101138.66;5120315;27;20027;-76
2022/05/31 05:59:38;;;;;;;8.38;6.28;;;;;;;22.97;100.00;101133.13;5135773;27;20160;-76
2022/05/31 06:02:29;;;;;;;11.15;6.60;;;;;;;23.22;100.00;101139.56;5135328;27;20034;-75
2022/05/31 06:05:20;;;;;;;10.30;6.63;;;;;;;23.20;100.00;101138.78;5136735;27;20031;-76
2022/05/31 06:08:12;;;;;;;7.95;6.45;;;;;;;23.38;100.00;101138.59;5121719;27;20028;-74
2022/05/31 06:11:27;;;;;;;7.65;6.50;;;;;;;23.39;100.00;101130.50;5105482;28;20024;-74
2022/05/31 06:14:22;;;;;;;8.55;6.53;;;;;;;23.45;100.00;101127.41;5103953;28;20182;-74
2022/05/31 06:17:14;;;;;;;9.43;6.65;;;;;;;23.13;100.00;101131.22;5104686;28;20101;-71
2022/05/31 06:20:06;;;;;;;11.15;6.57;;;;;;;23.52;100.00;101123.38;5104098;28;20036;-72
2022/05/31 06:22:52;;;;;;;11.77;7.25;;;;;;;23.42;100.00;101124.91;5103803;28;20038;-72
2022/05/31 06:25:41;;;;;;;12.75;6.95;;;;;;;23.52;100.00;101128.75;5106125;28;20043;-74
2022/05/31 06:28:27;;;;;;;11.48;6.93;;;;;;;23.71;100.00;101126.56;5075282;28;20035;-73
2022/05/31 06:31:13;;;;;;;9.95;6.50;;;;;;;23.44;100.00;101129.22;5104813;28;20059;-74
2022/05/31 06:33:59;;;;;;;8.57;6.60;;;;;;;23.97;100.00;101135.59;5102771;28;20030;-73
2022/05/31 06:36:45;;;;;;;8.65;6.57;;;;;;;24.24;100.00;101131.09;5104856;28;20038;-72
2022/05/31 06:39:32;;;;;;;9.05;6.28;;;;;;;24.28;100.00;101128.13;5103108;28;20032;-73
2022/05/31 06:42:18;;;;;;;10.15;6.53;;;;;;;24.30;100.00;101118.16;5105898;28;20460;-73
2022/05/31 06:45:04;;;;;;;11.60;7.13;;;;;;;24.16;100.00;101128.06;5105004;28;20092;-74
2022/05/31 06:47:50;;;;;;;10.45;6.75;;;;;;;24.26;100.00;101123.84;5102619;28;20029;-76
2022/05/31 06:50:36;;;;;;;11.80;6.90;;;;;;;24.59;100.00;101138.44;5104621;28;20026;-73
2022/05/31 06:59:12;;;;;;;10.30;7.65;;;;;;;24.62;100.00;101132.91;5110891;27;20042;-73
2022/05/31 07:02:03;;;;;;;11.07;7.93;;;;;;;24.49;100.00;101131.16;5107970;28;20019;-75
2022/05/31 07:04:49;;;;;;;12.63;8.13;;;;;;;25.20;100.00;101130.53;5108621;28;20023;-72
2022/05/31 07:07:35;;;;;;;10.90;8.30;;;;;;;25.17;100.00;101129.91;5109380;28;20171;-74
2022/05/31 07:10:21;;;;;;;15.10;8.38;;;;;;;25.27;100.00;101136.34;5093093;28;20028;-74
2022/05/31 07:13:07;;;;;;;10.48;8.45;;;;;;;25.47;100.00;101133.13;5107044;28;20036;-75
2022/05/31 07:15:53;;;;;;;13.55;8.73;;;;;;;25.35;100.00;101132.16;5079691;28;20051;-75
2022/05/31 07:18:39;;;;;;;9.18;7.22;;;;;;;25.85;100.00;101131.16;5089170;28;20048;-74
2022/05/31 07:21:25;;;;;;;10.85;7.65;;;;;;;25.75;100.00;101141.72;5085635;28;20024;-73
2022/05/31 07:24:11;;;;;;;9.68;8.25;;;;;;;25.81;100.00;101143.97;5088274;28;20422;-73
2022/05/31 07:26:57;;;;;;;8.82;7.22;;;;;;;26.02;100.00;101133.50;5087550;28;20028;-74
2022/05/31 07:29:43;;;;;;;10.88;7.20;;;;;;;25.99;100.00;101144.44;5087444;28;20042;-74
2022/05/31 07:32:30;;;;;;;10.38;7.07;;;;;;;26.07;100.00;101134.88;5084522;28;20432;-73
2022/05/31 07:35:16;;;;;;;11.18;7.18;;;;;;;25.89;100.00;101135.34;5074624;28;20024;-71
2022/05/31 07:38:02;;;;;;;8.68;6.55;;;;;;;25.84;100.00;101129.47;5088191;28;20054;-73
2022/05/31 07:40:49;;;;;;;8.63;6.50;;;;;;;26.85;100.00;101133.31;5087947;28;20024;-73
2022/05/31 07:43:34;;;;;;;10.07;6.95;;;;;;;26.99;100.00;101135.78;5086460;28;20513;-73
2022/05/31 07:46:20;;;;;;;10.07;6.28;;;;;;;27.12;100.00;101142.75;5087514;28;20418;-74
2022/05/31 07:49:06;;;;;;;9.73;6.03;;;;;;;27.18;100.00;101144.97;5086051;28;21113;-73
2022/05/31 07:51:52;;;;;;;11.05;6.43;;;;;;;26.92;100.00;101140.78;5086122;28;20038;-73
2022/05/31 07:54:39;;;;;;;11.48;6.90;;;;;;;27.14;100.00;101143.50;5085818;28;20031;-72
2022/05/31 08:00:31;;;;;;;9.60;7.40;;;;;;;27.14;100.00;101132.75;5086692;28;20032;-72
2022/05/31 08:03:16;;;;;;;9.32;6.20;;;;;;;27.79;100.00;101122.03;5086217;28;20035;-73
2022/05/31 08:06:11;;;;;;;8.85;7.18;;;;;;;28.05;100.00;101134.25;5086565;28;20062;-73
2022/05/31 08:08:57;;;;;;;9.88;7.75;;;;;;;28.07;100.00;101137.66;5073424;28;20055;-71
2022/05/31 08:11:43;;;;;;;10.30;7.47;;;;;;;28.39;100.00;101143.03;5087859;28;20356;-71
2022/05/31 08:14:29;;;;;;;10.40;7.88;;;;;;;28.44;100.00;101144.41;5096272;28;20472;-71
2022/05/31 08:17:14;;;;;;;13.13;7.85;;;;;;;28.34;100.00;101138.06;5093369;28;20454;-72
2022/05/31 08:20:00;;;;;;;13.30;8.57;;;;;;;29.29;99.97;101138.69;5107604;28;20024;-72
2022/05/31 08:22:48;;;;;;;14.20;8.13;;;;;;;29.28;99.59;101142.38;5090583;28;20054;-71
2022/05/31 08:25:38;;;;;;;12.77;7.70;;;;;;;29.31;100.00;101144.84;5106165;28;20035;-69
2022/05/31 08:28:24;;;;;;;10.52;7.13;;;;;;;29.71;99.05;101145.72;5107160;28;20032;-67
2022/05/31 08:31:12;;;;;;;12.05;8.13;;;;;;;29.05;100.00;101142.72;5108840;28;20114;-76
2022/05/31 08:33:59;;;;;;;14.18;8.20;;;;;;;29.60;98.46;101142.25;5090450;28;20427;-75
2022/05/31 08:36:44;;;;;;;8.10;7.03;;;;;;;29.56;99.44;101140.78;5107909;28;20086;-75
2022/05/31 08:39:30;;;;;;;12.50;7.85;;;;;;;29.84;97.67;101143.59;5091847;28;20360;-71
2022/05/31 08:42:34;;;;;;;14.05;7.85;;;;;;;29.19;100.00;101145.91;5108959;28;20024;-77
2022/05/31 08:45:28;;;;;;;10.73;7.75;;;;;;;29.35;100.00;101140.88;5106749;28;20058;-78
2022/05/31 08:48:26;;;;;;;10.35;7.40;;;;;;;29.99;97.88;101142.22;5093208;28;20486;-78
2022/05/31 08:57:46;;;;;;;9.15;7.20;;;;;;;30.60;93.12;101145.50;5106139;28;20036;-75
2022/05/31 09:00:37;;;;;;;11.93;7.90;;;;;;;30.09;94.65;101140.34;5107231;28;20027;-75
2022/05/31 09:03:28;;;;;;;9.75;7.50;;;;;;;30.93;89.38;101145.91;5104393;28;20039;-74
2022/05/31 09:06:24;;;;;;;15.55;10.13;;;;;;;30.20;95.91;101140.28;5092971;28;20031;-76
2022/05/31 09:09:34;;;;;;;12.73;8.85;;;;;;;29.96;95.89;101134.38;5111074;28;20031;-76
2022/05/31 09:12:46;;;;;;;12.07;8.85;;;;;;;30.29;93.99;101135.84;5104542;28;20132;-71
2022/05/31 09:15:47;;;;;;;14.10;8.38;;;;;;;30.17;94.42;101129.72;5092286;28;20437;-73
2022/05/31 09:18:45;;;;;;;9.68;7.60;;;;;;;29.79;96.02;101137.78;5106660;28;20073;-73
2022/05/31 09:21:48;;;;;;;15.00;7.63;;;;;;;31.11;89.50;101125.19;5091411;28;20044;-76
2022/05/31 09:24:41;;;;;;;11.27;7.70;;;;;;;30.70;90.44;101128.28;5104812;28;20061;-72
2022/05/31 09:27:42;;;;;;;11.13;7.55;;;;;;;30.76;87.89;101132.28;5105497;28;20029;-72
2022/05/31 09:30:35;;;;;;;9.35;7.95;;;;;;;31.00;86.90;101138.06;5105915;28;20020;-74
2022/05/31 09:33:32;;;;;;;13.98;7.90;;;;;;;31.08;83.44;101138.16;5104878;28;20020;-72
2022/05/31 09:36:30;;;;;;;10.80;8.15;;;;;;;31.01;85.18;101128.91;5090755;28;20035;-73
2022/05/31 09:39:24;;;;;;;13.48;8.60;;;;;;;31.34;83.96;101131.97;5107034;28;20068;-72
2022/05/31 09:42:21;;;;;;;8.90;7.05;;;;;;;31.58;82.02;101125.16;5092549;28;20367;-72
2022/05/31 09:45:14;;;;;;;9.35;7.88;;;;;;;30.99;85.15;101123.66;5106418;28;20475;-72
2022/05/31 09:48:04;;;;;;;10.82;7.95;;;;;;;30.52;89.54;101126.44;5091564;28;20027;-72
2022/05/31 09:50:55;;;;;;;9.60;8.25;;;;;;;29.68;95.55;101121.66;5108146;28;20048;-71
2022/05/31 09:59:58;;;;;;;10.18;8.07;;;;;;;31.15;86.84;101109.50;5105979;28;20341;-73
2022/05/31 10:03:12;;;;;;;10.68;7.88;;;;;;;31.04;85.16;101120.53;5105898;28;20047;-77
2022/05/31 10:06:19;;;;;;;13.77;8.60;;;;;;;30.65;88.82;101124.28;5104833;28;20105;-77
2022/05/31 10:09:17;;;;;;;11.45;8.10;;;;;;;30.10;92.25;101115.03;5106647;28;20161;-78
2022/05/31 10:12:11;;;;;;;10.55;7.93;;;;;;;30.23;93.39;101117.50;5090152;28;20031;-78
2022/05/31 10:14:58;;;;;;;13.50;9.23;;;;;;;30.61;89.94;101112.03;5104788;28;20066;-74
2022/05/31 10:17:44;;;;;;;13.18;8.20;;;;;;;30.42;89.03;101118.31;5089755;28;20058;-75
2022/05/31 10:20:30;;;;;;;12.30;8.25;;;;;;;30.33;91.74;101112.91;5103226;28;20039;-74
2022/05/31 10:23:21;;;;;;;18.15;9.05;;;;;;;29.72;95.03;101101.47;5111085;28;20150;-79
2022/05/31 10:26:07;;;;;;;10.75;8.32;;;;;;;30.41;91.12;101102.25;5103366;28;20263;-78
2022/05/31 10:29:01;;;;;;;10.00;8.57;;;;;;;30.81;87.11;101098.38;5113914;28;20028;-79
2022/05/31 10:31:47;;;;;;;10.88;7.97;;;;;;;30.60;86.59;101094.09;5117184;28;20043;-77
2022/05/31 10:34:42;;;;;;;14.55;9.05;;;;;;;31.12;84.21;101097.13;5110169;28;20864;-76
2022/05/31 10:37:32;;;;;;;9.80;8.20;;;;;;;30.67;85.87;101095.25;5096777;28;20031;-77
2022/05/31 10:40:22;;;;;;;13.38;8.75;;;;;;;30.34;86.62;101085.75;5112094;28;20058;-77
2022/05/31 10:43:37;;;;;;;14.80;8.68;;;;;;;30.45;86.55;101093.72;5096661;28;20035;-79
2022/05/31 10:46:23;;;;;;;12.23;8.38;;;;;;;30.62;84.83;101090.25;5098587;28;20034;-77
2022/05/31 10:49:17;;;;;;;12.50;8.38;;;;;;;30.70;83.93;101087.72;5112786;28;20042;-76
2022/05/31 10:52:27;;;;;;;10.98;8.30;;;;;;;30.30;83.82;101081.63;5111250;28;20028;-77
2022/05/31 10:55:47;;;;;;;11.60;8.55;;;;;;;30.39;83.24;101078.06;5100360;28;20396;-73
2022/05/31 10:59:09;;;;;;;12.98;7.88;;;;;;;30.56;80.39;101073.75;5112209;28;20031;-75
2022/05/31 11:02:40;;;;;;;11.32;8.57;;;;;;;31.38;77.56;101065.66;5112306;28;20038;-77
2022/05/31 11:05:45;;;;;;;16.52;9.00;;;;;;;30.69;79.01;101071.63;5110436;28;20436;-77
2022/05/31 11:12:28;;;;;;;11.05;8.50;;;;;;;31.20;74.88;101066.59;5112748;28;20023;-75
2022/05/31 11:15:28;;;;;;;13.98;8.57;;;;;;;31.07;75.46;101053.38;5111166;28;20803;-74
2022/05/31 11:18:34;;;;;;;12.85;8.13;;;;;;;31.46;74.43;101045.09;5111429;28;20039;-75
2022/05/31 11:21:26;;;;;;;9.93;8.20;;;;;;;30.30;80.84;101038.34;5108938;28;20039;-76
2022/05/31 11:24:39;;;;;;;13.30;8.63;;;;;;;31.36;76.80;101039.72;5095479;28;20059;-76
2022/05/31 11:27:55;;;;;;;12.18;8.23;;;;;;;31.74;75.24;101034.03;5096372;28;20038;-74
2022/05/31 11:30:58;;;;;;;10.43;8.07;;;;;;;32.02;73.17;101035.69;5096524;28;20456;-76
2022/05/31 11:34:17;;;;;;;13.88;7.97;;;;;;;32.59;66.82;101037.03;5092162;28;20039;-76
2022/05/31 11:37:25;;;;;;;11.20;7.95;;;;;;;31.94;67.86;101021.22;5094375;28;20027;-75
2022/05/31 11:40:43;;;;;;;11.63;8.05;;;;;;;32.00;69.96;101031.44;5092538;28;20440;-76
2022/05/31 11:43:38;;;;;;;8.60;7.65;;;;;;;32.50;65.46;101024.41;5092309;28;20112;-75
2022/05/31 11:46:27;;;;;;;11.13;8.82;;;;;;;32.00;68.44;101026.00;5093295;28;20034;-77
2022/05/31 11:49:18;;;;;;;10.65;8.23;;;;;;;31.78;66.04;101024.63;5108993;28;20678;-77
2022/05/31 11:52:42;;;;;;;10.27;8.25;;;;;;;32.26;63.39;101018.78;5093177;28;20432;-79
2022/05/31 11:55:31;;;;;;;9.25;8.35;;;;;;;32.73;62.82;101018.28;5106448;28;20103;-77
2022/05/31 11:58:29;;;;;;;10.55;8.15;;;;;;;32.63;62.45;101017.56;5093729;28;20031;-77
2022/05/31 12:01:37;;;;;;;10.65;8.00;;;;;;;32.38;63.34;101009.41;5108719;28;20508;-79
2022/05/31 12:04:30;;;;;;;11.82;8.25;;;;;;;32.56;63.32;101011.06;5078769;28;20027;-73
2022/05/31 12:07:24;;;;;;;11.20;8.25;;;;;;;32.34;62.96;101008.88;5108302;28;20372;-75
2022/05/31 12:10:53;;;;;;;10.45;9.00;;;;;;;32.35;64.92;100998.88;5108297;28;20061;-74
2022/05/31 12:13:44;;;;;;;9.95;8.93;;;;;;;32.12;66.36;101012.06;5003416;28;20054;-74
2022/05/31 12:16:31;;;;;;;11.90;8.00;;;;;;;31.61;68.99;101005.66;5004511;28;20073;-78
2022/05/31 12:19:23;;;;;;;12.40;8.18;;;;;;;32.25;67.05;101001.66;5085759;28;20055;-77
2022/05/31 12:22:18;;;;;;;11.13;8.13;;;;;;;32.15;65.68;101000.91;5087357;28;20428;-77
2022/05/31 12:25:20;;;;;;;12.15;8.60;;;;;;;31.81;68.08;100993.69;5085921;28;20109;-77
2022/05/31 12:28:18;;;;;;;10.63;8.73;;;;;;;31.98;65.54;100993.63;5059107;28;20024;-75
2022/05/31 12:31:24;;;;;;;10.05;8.90;;;;;;;32.04;63.19;100992.16;5085965;28;20066;-74
2022/05/31 12:34:13;;;;;;;11.57;8.00;;;;;;;32.62;60.44;100991.41;5085319;28;20032;-76
2022/05/31 12:37:17;;;;;;;10.38;7.40;;;;;;;32.40;57.87;100988.38;5071831;28;20443;-75
2022/05/31 12:40:33;;;;;;;9.68;6.82;;;;;;;33.09;53.45;100980.97;5085767;28;20531;-75
2022/05/31 12:43:48;;;;;;;10.55;7.75;;;;;;;32.57;59.20;100984.75;5085222;28;20063;-74
2022/05/31 12:46:38;;;;;;;13.30;8.32;;;;;;;32.19;62.17;100980.59;5085747;28;20032;-77
2022/05/31 12:49:28;;;;;;;9.75;7.70;;;;;;;32.50;58.29;100979.13;5083899;28;20109;-74
2022/05/31 12:55:27;;;;;;;12.18;7.80;;;;;;;32.13;59.97;100974.94;5084397;28;20032;-74
2022/05/31 12:58:29;;;;;;;11.45;8.23;;;;;;;32.24;60.04;100970.13;5086203;28;20031;-75
2022/05/31 13:01:15;;;;;;;10.13;7.78;;;;;;;31.81;60.56;100974.72;5073278;28;20036;-75
2022/05/31 13:04:17;;;;;;;10.88;8.40;;;;;;;31.88;62.24;100973.91;5069195;28;20058;-78
2022/05/31 13:07:19;;;;;;;12.55;8.25;;;;;;;31.33;64.97;100973.19;5071888;28;20364;-77
2022/05/31 13:10:38;;;;;;;10.32;8.07;;;;;;;31.13;64.73;100970.72;5071008;28;20035;-74
2022/05/31 13:19:53;;;;;;;9.55;8.55;;;;;;;30.46;72.34;100962.88;5106230;28;20089;-74
2022/05/31 13:22:46;;;;;;;13.60;8.52;;;;;;;31.00;70.02;100971.09;5106762;28;20046;-73
2022/05/31 13:25:53;;;;;;;11.52;8.30;;;;;;;31.28;66.87;100964.69;5105524;28;20023;-73
2022/05/31 13:28:45;;;;;;;14.07;8.43;;;;;;;31.87;65.07;100971.34;5107782;28;20035;-73
2022/05/31 13:31:37;;;;;;;10.30;8.55;;;;;;;31.90;63.29;100980.00;5107311;28;20023;-74
2022/05/31 13:34:25;;;;;;;12.32;8.25;;;;;;;32.53;60.36;100980.66;5092550;28;20443;-74
2022/05/31 13:37:20;;;;;;;18.65;8.15;;;;;;;32.53;59.95;100976.09;5091771;28;20195;-74
2022/05/31 13:40:06;;;;;;;10.98;8.07;;;;;;;32.94;56.55;100972.59;5092173;28;20047;-73
2022/05/31 13:42:56;;;;;;;10.00;7.93;;;;;;;31.88;59.81;100965.78;5108527;28;20386;-73
2022/05/31 13:45:42;;;;;;;11.50;7.90;;;;;;;31.83;60.51;100970.81;5106908;28;20430;-72
2022/05/31 13:48:33;;;;;;;9.88;8.23;;;;;;;31.47;62.68;100955.56;5091323;28;20036;-73
2022/05/31 13:51:23;;;;;;;9.55;8.27;;;;;;;31.71;61.80;100963.03;5090775;28;20031;-72
2022/05/31 13:54:15;;;;;;;9.70;8.32;;;;;;;31.42;62.52;100958.72;5105895;28;20036;-73